sensor_id;sensor_type;location;lat;lon;timestamp;P1;durP1;ratioP1;P2;durP2;ratioP2
1178;SDS011;578;48.408;10.004;2023-09-18T00:00:50;9.47;;;8.63;;
1178;SDS011;578;48.408;10.004;2023-09-18T00:02:53;9.70;;;8.90;;
1178;SDS011;578;48.408;10.004;2023-09-18T00:04:55;9.70;;;8.90;;
1178;SDS011;578;48.408;10.004;2023-09-18T00:06:57;8.87;;;8.20;;
1178;SDS011;578;48.408;10.004;2023-09-18T00:08:58;11.27;;;9.70;;
1178;SDS011;578;48.408;10.004;2023-09-18T00:10:59;11.00;;;10.00;;
1178;SDS011;578;48.408;10.004;2023-09-18T00:13:01;14.17;;;10.50;;
1178;SDS011;578;48.408;10.004;2023-09-18T00:15:04;11.73;;;10.53;;
1178;SDS011;578;48.408;10.004;2023-09-18T00:17:08;10.80;;;9.37;;
1178;SDS011;578;48.408;10.004;2023-09-18T00:19:11;11.10;;;10.20;;
1178;SDS011;578;48.408;10.004;2023-09-18T00:21:13;10.17;;;9.27;;
1178;SDS011;578;48.408;10.004;2023-09-18T00:23:16;10.93;;;9.83;;
1178;SDS011;578;48.408;10.004;2023-09-18T00:25:18;9.47;;;8.77;;
1178;SDS011;578;48.408;10.004;2023-09-18T00:27:20;14.03;;;10.20;;
1178;SDS011;578;48.408;10.004;2023-09-18T00:29:22;11.67;;;10.63;;
1178;SDS011;578;48.408;10.004;2023-09-18T00:31:24;11.10;;;10.00;;
1178;SDS011;578;48.408;10.004;2023-09-18T00:33:25;11.00;;;9.97;;
1178;SDS011;578;48.408;10.004;2023-09-18T00:35:28;10.77;;;9.80;;
1178;SDS011;578;48.408;10.004;2023-09-18T00:37:29;10.33;;;9.33;;
1178;SDS011;578;48.408;10.004;2023-09-18T00:39:31;11.90;;;10.67;;
1178;SDS011;578;48.408;10.004;2023-09-18T00:41:33;11.80;;;10.70;;
1178;SDS011;578;48.408;10.004;2023-09-18T00:43:34;10.97;;;9.90;;
1178;SDS011;578;48.408;10.004;2023-09-18T00:45:36;9.77;;;8.87;;
1178;SDS011;578;48.408;10.004;2023-09-18T00:47:42;10.43;;;9.40;;
1178;SDS011;578;48.408;10.004;2023-09-18T00:49:48;13.10;;;10.50;;
1178;SDS011;578;48.408;10.004;2023-09-18T00:51:52;10.37;;;9.47;;
1178;SDS011;578;48.408;10.004;2023-09-18T00:53:53;10.60;;;9.70;;
1178;SDS011;578;48.408;10.004;2023-09-18T00:55:56;13.20;;;10.60;;
1178;SDS011;578;48.408;10.004;2023-09-18T00:58:00;11.03;;;10.13;;
1178;SDS011;578;48.408;10.004;2023-09-18T01:00:01;11.03;;;10.10;;
1178;SDS011;578;48.408;10.004;2023-09-18T01:02:05;11.60;;;10.43;;
1178;SDS011;578;48.408;10.004;2023-09-18T01:04:07;12.77;;;11.20;;
1178;SDS011;578;48.408;10.004;2023-09-18T01:06:09;11.17;;;10.20;;
1178;SDS011;578;48.408;10.004;2023-09-18T01:08:13;11.13;;;10.13;;
1178;SDS011;578;48.408;10.004;2023-09-18T01:10:15;11.50;;;10.50;;
1178;SDS011;578;48.408;10.004;2023-09-18T01:12:17;11.17;;;10.17;;
1178;SDS011;578;48.408;10.004;2023-09-18T01:14:24;11.60;;;10.50;;
1178;SDS011;578;48.408;10.004;2023-09-18T01:16:31;11.30;;;10.30;;
1178;SDS011;578;48.408;10.004;2023-09-18T01:18:36;11.50;;;10.60;;
1178;SDS011;578;48.408;10.004;2023-09-18T01:20:38;11.00;;;10.00;;
1178;SDS011;578;48.408;10.004;2023-09-18T01:22:41;11.90;;;11.00;;
1178;SDS011;578;48.408;10.004;2023-09-18T01:24:44;12.90;;;11.73;;
1178;SDS011;578;48.408;10.004;2023-09-18T01:26:47;13.63;;;12.33;;
1178;SDS011;578;48.408;10.004;2023-09-18T01:28:49;12.20;;;11.17;;
1178;SDS011;578;48.408;10.004;2023-09-18T01:30:49;13.00;;;11.80;;
1178;SDS011;578;48.408;10.004;2023-09-18T01:32:51;11.20;;;10.10;;
1178;SDS011;578;48.408;10.004;2023-09-18T01:34:54;11.80;;;10.80;;
1178;SDS011;578;48.408;10.004;2023-09-18T01:36:57;12.00;;;10.97;;
1178;SDS011;578;48.408;10.004;2023-09-18T01:39:01;11.27;;;10.13;;
1178;SDS011;578;48.408;10.004;2023-09-18T01:41:03;11.83;;;10.83;;
1178;SDS011;578;48.408;10.004;2023-09-18T01:43:05;10.70;;;9.90;;
1178;SDS011;578;48.408;10.004;2023-09-18T01:45:07;10.00;;;9.20;;
1178;SDS011;578;48.408;10.004;2023-09-18T01:47:11;11.23;;;10.03;;
1178;SDS011;578;48.408;10.004;2023-09-18T01:49:19;10.40;;;9.13;;
1178;SDS011;578;48.408;10.004;2023-09-18T01:51:28;9.80;;;8.90;;
1178;SDS011;578;48.408;10.004;2023-09-18T01:53:29;10.70;;;9.70;;
1178;SDS011;578;48.408;10.004;2023-09-18T01:55:32;10.30;;;9.37;;
1178;SDS011;578;48.408;10.004;2023-09-18T01:57:34;10.43;;;9.43;;
1178;SDS011;578;48.408;10.004;2023-09-18T01:59:36;9.53;;;8.80;;
1178;SDS011;578;48.408;10.004;2023-09-18T02:01:37;10.60;;;9.50;;
1178;SDS011;578;48.408;10.004;2023-09-18T02:03:39;9.20;;;8.50;;
1178;SDS011;578;48.408;10.004;2023-09-18T02:05:42;9.70;;;9.00;;
1178;SDS011;578;48.408;10.004;2023-09-18T02:07:44;9.60;;;8.70;;
1178;SDS011;578;48.408;10.004;2023-09-18T02:09:45;9.73;;;8.83;;
1178;SDS011;578;48.408;10.004;2023-09-18T02:11:48;10.03;;;9.13;;
1178;SDS011;578;48.408;10.004;2023-09-18T02:13:50;9.70;;;8.90;;
1178;SDS011;578;48.408;10.004;2023-09-18T02:15:53;11.17;;;10.13;;
1178;SDS011;578;48.408;10.004;2023-09-18T02:17:56;10.53;;;9.53;;
1178;SDS011;578;48.408;10.004;2023-09-18T02:19:58;9.77;;;8.87;;
1178;SDS011;578;48.408;10.004;2023-09-18T02:22:01;10.33;;;9.27;;
1178;SDS011;578;48.408;10.004;2023-09-18T02:24:03;10.00;;;8.93;;
1178;SDS011;578;48.408;10.004;2023-09-18T02:26:04;12.30;;;10.40;;
1178;SDS011;578;48.408;10.004;2023-09-18T02:28:07;10.50;;;9.60;;
1178;SDS011;578;48.408;10.004;2023-09-18T02:30:09;10.10;;;9.20;;
1178;SDS011;578;48.408;10.004;2023-09-18T02:32:12;11.13;;;10.10;;
1178;SDS011;578;48.408;10.004;2023-09-18T02:34:13;11.90;;;10.90;;
1178;SDS011;578;48.408;10.004;2023-09-18T02:36:15;12.70;;;11.50;;
1178;SDS011;578;48.408;10.004;2023-09-18T02:38:17;12.50;;;11.40;;
1178;SDS011;578;48.408;10.004;2023-09-18T02:40:19;11.80;;;10.70;;
1178;SDS011;578;48.408;10.004;2023-09-18T02:42:21;11.30;;;10.37;;
1178;SDS011;578;48.408;10.004;2023-09-18T02:44:24;12.57;;;11.47;;
1178;SDS011;578;48.408;10.004;2023-09-18T02:46:25;11.90;;;10.90;;
1178;SDS011;578;48.408;10.004;2023-09-18T02:48:27;12.27;;;11.03;;
1178;SDS011;578;48.408;10.004;2023-09-18T02:50:27;12.33;;;11.27;;
1178;SDS011;578;48.408;10.004;2023-09-18T02:52:29;11.77;;;10.77;;
1178;SDS011;578;48.408;10.004;2023-09-18T02:54:31;12.30;;;11.20;;
1178;SDS011;578;48.408;10.004;2023-09-18T02:56:33;12.27;;;11.07;;
1178;SDS011;578;48.408;10.004;2023-09-18T02:58:35;11.80;;;10.70;;
1178;SDS011;578;48.408;10.004;2023-09-18T03:00:41;13.30;;;12.10;;
1178;SDS011;578;48.408;10.004;2023-09-18T03:02:44;14.37;;;13.10;;
1178;SDS011;578;48.408;10.004;2023-09-18T03:04:46;13.40;;;12.10;;
1178;SDS011;578;48.408;10.004;2023-09-18T03:06:48;13.00;;;11.80;;
1178;SDS011;578;48.408;10.004;2023-09-18T03:08:50;12.93;;;11.27;;
1178;SDS011;578;48.408;10.004;2023-09-18T03:10:52;12.63;;;11.53;;
1178;SDS011;578;48.408;10.004;2023-09-18T03:12:54;12.23;;;11.03;;
1178;SDS011;578;48.408;10.004;2023-09-18T03:14:56;12.87;;;11.57;;
1178;SDS011;578;48.408;10.004;2023-09-18T03:16:59;13.07;;;11.70;;
1178;SDS011;578;48.408;10.004;2023-09-18T03:19:01;13.70;;;12.50;;
1178;SDS011;578;48.408;10.004;2023-09-18T03:21:04;14.10;;;12.80;;
1178;SDS011;578;48.408;10.004;2023-09-18T03:23:06;13.23;;;12.13;;
1178;SDS011;578;48.408;10.004;2023-09-18T03:25:07;13.27;;;11.97;;
1178;SDS011;578;48.408;10.004;2023-09-18T03:27:10;13.90;;;12.53;;
1178;SDS011;578;48.408;10.004;2023-09-18T03:29:12;13.70;;;12.30;;
1178;SDS011;578;48.408;10.004;2023-09-18T03:31:13;15.20;;;12.20;;
1178;SDS011;578;48.408;10.004;2023-09-18T03:33:17;12.17;;;11.13;;
1178;SDS011;578;48.408;10.004;2023-09-18T03:35:18;14.20;;;12.73;;
1178;SDS011;578;48.408;10.004;2023-09-18T03:37:21;12.50;;;11.03;;
1178;SDS011;578;48.408;10.004;2023-09-18T03:39:23;16.90;;;15.17;;
1178;SDS011;578;48.408;10.004;2023-09-18T03:41:25;12.97;;;11.67;;
1178;SDS011;578;48.408;10.004;2023-09-18T03:43:27;14.40;;;13.00;;
1178;SDS011;578;48.408;10.004;2023-09-18T03:45:29;14.77;;;13.37;;
1178;SDS011;578;48.408;10.004;2023-09-18T03:47:30;15.53;;;14.13;;
1178;SDS011;578;48.408;10.004;2023-09-18T03:49:33;16.20;;;14.70;;
1178;SDS011;578;48.408;10.004;2023-09-18T03:51:35;17.43;;;14.43;;
1178;SDS011;578;48.408;10.004;2023-09-18T03:53:36;15.70;;;14.20;;
1178;SDS011;578;48.408;10.004;2023-09-18T03:55:38;15.90;;;14.27;;
1178;SDS011;578;48.408;10.004;2023-09-18T03:57:41;17.47;;;15.50;;
1178;SDS011;578;48.408;10.004;2023-09-18T03:59:43;22.53;;;20.33;;
1178;SDS011;578;48.408;10.004;2023-09-18T04:01:45;19.87;;;17.87;;
1178;SDS011;578;48.408;10.004;2023-09-18T04:03:47;27.20;;;22.73;;
1178;SDS011;578;48.408;10.004;2023-09-18T04:05:50;23.83;;;20.87;;
1178;SDS011;578;48.408;10.004;2023-09-18T04:07:52;22.30;;;19.90;;
1178;SDS011;578;48.408;10.004;2023-09-18T04:09:53;21.03;;;18.83;;
1178;SDS011;578;48.408;10.004;2023-09-18T04:11:56;24.57;;;21.90;;
1178;SDS011;578;48.408;10.004;2023-09-18T04:13:58;23.33;;;18.40;;
1178;SDS011;578;48.408;10.004;2023-09-18T04:15:59;20.50;;;18.27;;
1178;SDS011;578;48.408;10.004;2023-09-18T04:18:01;20.30;;;18.40;;
1178;SDS011;578;48.408;10.004;2023-09-18T04:20:03;20.30;;;18.37;;
1178;SDS011;578;48.408;10.004;2023-09-18T04:22:06;19.40;;;17.60;;
1178;SDS011;578;48.408;10.004;2023-09-18T04:24:08;19.87;;;17.90;;
1178;SDS011;578;48.408;10.004;2023-09-18T04:26:10;18.90;;;17.00;;
1178;SDS011;578;48.408;10.004;2023-09-18T04:28:16;19.27;;;17.40;;
1178;SDS011;578;48.408;10.004;2023-09-18T04:30:19;20.13;;;17.90;;
1178;SDS011;578;48.408;10.004;2023-09-18T04:32:21;18.77;;;17.03;;
1178;SDS011;578;48.408;10.004;2023-09-18T04:34:23;18.40;;;16.57;;
1178;SDS011;578;48.408;10.004;2023-09-18T04:36:25;19.00;;;16.67;;
1178;SDS011;578;48.408;10.004;2023-09-18T04:38:28;16.50;;;15.00;;
1178;SDS011;578;48.408;10.004;2023-09-18T04:40:30;18.33;;;16.73;;
1178;SDS011;578;48.408;10.004;2023-09-18T04:42:32;17.47;;;15.87;;
1178;SDS011;578;48.408;10.004;2023-09-18T04:44:34;18.10;;;16.50;;
1178;SDS011;578;48.408;10.004;2023-09-18T04:46:37;17.50;;;15.80;;
1178;SDS011;578;48.408;10.004;2023-09-18T04:48:39;17.37;;;15.87;;
1178;SDS011;578;48.408;10.004;2023-09-18T04:50:41;19.47;;;17.57;;
1178;SDS011;578;48.408;10.004;2023-09-18T04:52:43;16.00;;;14.43;;
1178;SDS011;578;48.408;10.004;2023-09-18T04:54:49;17.43;;;15.77;;
1178;SDS011;578;48.408;10.004;2023-09-18T04:56:51;17.77;;;16.17;;
1178;SDS011;578;48.408;10.004;2023-09-18T04:58:54;18.60;;;16.80;;
1178;SDS011;578;48.408;10.004;2023-09-18T05:00:58;18.53;;;16.13;;
1178;SDS011;578;48.408;10.004;2023-09-18T05:03:01;18.20;;;16.40;;
1178;SDS011;578;48.408;10.004;2023-09-18T05:05:04;18.30;;;16.40;;
1178;SDS011;578;48.408;10.004;2023-09-18T05:07:09;16.80;;;15.30;;
1178;SDS011;578;48.408;10.004;2023-09-18T05:09:11;18.33;;;15.97;;
1178;SDS011;578;48.408;10.004;2023-09-18T05:11:15;19.40;;;16.17;;
1178;SDS011;578;48.408;10.004;2023-09-18T05:13:18;17.23;;;15.67;;
1178;SDS011;578;48.408;10.004;2023-09-18T05:15:19;18.93;;;17.13;;
1178;SDS011;578;48.408;10.004;2023-09-18T05:17:21;19.93;;;16.43;;
1178;SDS011;578;48.408;10.004;2023-09-18T05:19:41;18.80;;;16.90;;
1178;SDS011;578;48.408;10.004;2023-09-18T05:21:43;17.83;;;16.03;;
1178;SDS011;578;48.408;10.004;2023-09-18T05:23:45;18.53;;;16.73;;
1178;SDS011;578;48.408;10.004;2023-09-18T05:25:46;16.50;;;14.80;;
1178;SDS011;578;48.408;10.004;2023-09-18T05:27:49;17.17;;;15.37;;
1178;SDS011;578;48.408;10.004;2023-09-18T05:29:55;15.97;;;14.57;;
1178;SDS011;578;48.408;10.004;2023-09-18T05:31:57;17.60;;;15.57;;
1178;SDS011;578;48.408;10.004;2023-09-18T05:33:59;20.57;;;16.17;;
1178;SDS011;578;48.408;10.004;2023-09-18T05:36:01;16.07;;;14.50;;
1178;SDS011;578;48.408;10.004;2023-09-18T05:38:03;14.80;;;13.50;;
1178;SDS011;578;48.408;10.004;2023-09-18T05:40:06;15.57;;;14.07;;
1178;SDS011;578;48.408;10.004;2023-09-18T05:42:09;15.50;;;14.00;;
1178;SDS011;578;48.408;10.004;2023-09-18T05:44:12;17.40;;;15.70;;
1178;SDS011;578;48.408;10.004;2023-09-18T05:46:14;16.90;;;14.47;;
1178;SDS011;578;48.408;10.004;2023-09-18T05:48:16;15.70;;;14.13;;
1178;SDS011;578;48.408;10.004;2023-09-18T05:50:18;15.67;;;14.27;;
1178;SDS011;578;48.408;10.004;2023-09-18T05:52:20;16.27;;;14.77;;
1178;SDS011;578;48.408;10.004;2023-09-18T05:54:22;18.47;;;15.23;;
1178;SDS011;578;48.408;10.004;2023-09-18T05:56:24;15.77;;;14.07;;
1178;SDS011;578;48.408;10.004;2023-09-18T05:58:27;15.83;;;14.20;;
1178;SDS011;578;48.408;10.004;2023-09-18T06:00:30;15.33;;;13.67;;
1178;SDS011;578;48.408;10.004;2023-09-18T06:02:32;14.50;;;13.30;;
1178;SDS011;578;48.408;10.004;2023-09-18T06:04:34;14.03;;;12.83;;
1178;SDS011;578;48.408;10.004;2023-09-18T06:06:37;13.03;;;11.63;;
1178;SDS011;578;48.408;10.004;2023-09-18T06:08:38;13.10;;;10.40;;
1178;SDS011;578;48.408;10.004;2023-09-18T06:10:40;14.27;;;11.13;;
1178;SDS011;578;48.408;10.004;2023-09-18T06:12:42;12.13;;;10.97;;
1178;SDS011;578;48.408;10.004;2023-09-18T06:14:44;16.07;;;11.40;;
1178;SDS011;578;48.408;10.004;2023-09-18T06:16:49;12.80;;;11.33;;
1178;SDS011;578;48.408;10.004;2023-09-18T06:18:51;12.80;;;11.43;;
1178;SDS011;578;48.408;10.004;2023-09-18T06:20:54;13.50;;;11.50;;
1178;SDS011;578;48.408;10.004;2023-09-18T06:22:56;11.80;;;10.60;;
1178;SDS011;578;48.408;10.004;2023-09-18T06:24:57;14.70;;;11.17;;
1178;SDS011;578;48.408;10.004;2023-09-18T06:26:59;13.70;;;11.03;;
1178;SDS011;578;48.408;10.004;2023-09-18T06:29:01;13.87;;;10.50;;
1178;SDS011;578;48.408;10.004;2023-09-18T06:31:03;11.70;;;10.60;;
1178;SDS011;578;48.408;10.004;2023-09-18T06:33:06;12.10;;;11.00;;
1178;SDS011;578;48.408;10.004;2023-09-18T06:35:08;12.70;;;11.13;;
1178;SDS011;578;48.408;10.004;2023-09-18T06:37:10;13.03;;;10.70;;
1178;SDS011;578;48.408;10.004;2023-09-18T06:39:12;15.40;;;12.30;;
1178;SDS011;578;48.408;10.004;2023-09-18T06:41:15;11.73;;;10.73;;
1178;SDS011;578;48.408;10.004;2023-09-18T06:43:16;15.03;;;10.33;;
1178;SDS011;578;48.408;10.004;2023-09-18T06:45:18;11.67;;;10.53;;
1178;SDS011;578;48.408;10.004;2023-09-18T06:47:20;15.93;;;11.47;;
1178;SDS011;578;48.408;10.004;2023-09-18T06:49:25;13.07;;;10.30;;
1178;SDS011;578;48.408;10.004;2023-09-18T06:51:27;12.43;;;11.00;;
1178;SDS011;578;48.408;10.004;2023-09-18T06:53:29;12.03;;;10.83;;
1178;SDS011;578;48.408;10.004;2023-09-18T06:55:31;14.10;;;10.57;;
1178;SDS011;578;48.408;10.004;2023-09-18T06:57:32;12.60;;;9.70;;
1178;SDS011;578;48.408;10.004;2023-09-18T06:59:35;10.70;;;9.77;;
1178;SDS011;578;48.408;10.004;2023-09-18T07:01:37;11.33;;;10.10;;
1178;SDS011;578;48.408;10.004;2023-09-18T07:03:39;10.90;;;10.00;;
1178;SDS011;578;48.408;10.004;2023-09-18T07:05:42;12.10;;;9.70;;
1178;SDS011;578;48.408;10.004;2023-09-18T07:07:46;11.13;;;10.03;;
1178;SDS011;578;48.408;10.004;2023-09-18T07:09:47;14.00;;;10.57;;
1178;SDS011;578;48.408;10.004;2023-09-18T07:11:48;14.83;;;10.20;;
1178;SDS011;578;48.408;10.004;2023-09-18T07:13:50;11.23;;;10.23;;
1178;SDS011;578;48.408;10.004;2023-09-18T07:15:52;11.30;;;10.20;;
1178;SDS011;578;48.408;10.004;2023-09-18T07:17:54;10.33;;;9.33;;
1178;SDS011;578;48.408;10.004;2023-09-18T07:19:56;16.17;;;9.47;;
1178;SDS011;578;48.408;10.004;2023-09-18T07:21:59;14.23;;;9.53;;
1178;SDS011;578;48.408;10.004;2023-09-18T07:24:01;10.13;;;9.10;;
1178;SDS011;578;48.408;10.004;2023-09-18T07:26:02;10.93;;;9.93;;
1178;SDS011;578;48.408;10.004;2023-09-18T07:28:04;14.47;;;9.80;;
1178;SDS011;578;48.408;10.004;2023-09-18T07:30:07;9.63;;;8.73;;
1178;SDS011;578;48.408;10.004;2023-09-18T07:32:10;13.13;;;8.70;;
1178;SDS011;578;48.408;10.004;2023-09-18T07:34:13;10.07;;;9.07;;
1178;SDS011;578;48.408;10.004;2023-09-18T07:36:16;10.80;;;9.80;;
1178;SDS011;578;48.408;10.004;2023-09-18T07:38:19;10.80;;;9.23;;
1178;SDS011;578;48.408;10.004;2023-09-18T07:40:21;10.37;;;8.40;;
1178;SDS011;578;48.408;10.004;2023-09-18T07:42:23;11.60;;;8.70;;
1178;SDS011;578;48.408;10.004;2023-09-18T07:44:25;9.57;;;8.60;;
1178;SDS011;578;48.408;10.004;2023-09-18T07:46:27;9.20;;;7.70;;
1178;SDS011;578;48.408;10.004;2023-09-18T07:48:29;8.97;;;8.10;;
1178;SDS011;578;48.408;10.004;2023-09-18T07:50:31;13.87;;;8.57;;
1178;SDS011;578;48.408;10.004;2023-09-18T07:52:33;8.60;;;7.80;;
1178;SDS011;578;48.408;10.004;2023-09-18T07:54:36;11.40;;;8.20;;
1178;SDS011;578;48.408;10.004;2023-09-18T07:56:38;11.90;;;7.90;;
1178;SDS011;578;48.408;10.004;2023-09-18T07:58:39;8.60;;;7.60;;
1178;SDS011;578;48.408;10.004;2023-09-18T08:00:41;8.77;;;7.73;;
1178;SDS011;578;48.408;10.004;2023-09-18T08:02:43;8.83;;;7.17;;
1178;SDS011;578;48.408;10.004;2023-09-18T08:04:46;9.37;;;8.03;;
1178;SDS011;578;48.408;10.004;2023-09-18T08:06:48;10.33;;;8.57;;
1178;SDS011;578;48.408;10.004;2023-09-18T08:08:49;11.43;;;8.23;;
1178;SDS011;578;48.408;10.004;2023-09-18T08:10:53;14.03;;;8.30;;
1178;SDS011;578;48.408;10.004;2023-09-18T08:12:55;12.57;;;8.50;;
1178;SDS011;578;48.408;10.004;2023-09-18T08:14:56;13.97;;;8.27;;
1178;SDS011;578;48.408;10.004;2023-09-18T08:16:59;11.30;;;9.20;;
1178;SDS011;578;48.408;10.004;2023-09-18T08:19:03;14.30;;;9.57;;
1178;SDS011;578;48.408;10.004;2023-09-18T08:21:05;10.97;;;9.17;;
1178;SDS011;578;48.408;10.004;2023-09-18T08:23:06;14.23;;;9.00;;
1178;SDS011;578;48.408;10.004;2023-09-18T08:25:07;10.40;;;9.30;;
1178;SDS011;578;48.408;10.004;2023-09-18T08:27:13;12.90;;;9.17;;
1178;SDS011;578;48.408;10.004;2023-09-18T08:29:16;9.10;;;8.30;;
1178;SDS011;578;48.408;10.004;2023-09-18T08:31:18;11.20;;;9.30;;
1178;SDS011;578;48.408;10.004;2023-09-18T08:33:20;15.27;;;8.77;;
1178;SDS011;578;48.408;10.004;2023-09-18T08:35:22;11.13;;;8.20;;
1178;SDS011;578;48.408;10.004;2023-09-18T08:37:28;11.50;;;8.33;;
1178;SDS011;578;48.408;10.004;2023-09-18T08:39:29;15.90;;;8.30;;
1178;SDS011;578;48.408;10.004;2023-09-18T08:41:32;9.27;;;8.33;;
1178;SDS011;578;48.408;10.004;2023-09-18T08:43:38;8.80;;;7.33;;
1178;SDS011;578;48.408;10.004;2023-09-18T08:45:43;10.00;;;8.80;;
1178;SDS011;578;48.408;10.004;2023-09-18T08:47:49;10.30;;;8.80;;
1178;SDS011;578;48.408;10.004;2023-09-18T08:49:53;9.33;;;8.43;;
1178;SDS011;578;48.408;10.004;2023-09-18T08:51:56;9.13;;;7.63;;
1178;SDS011;578;48.408;10.004;2023-09-18T08:53:59;8.77;;;7.57;;
1178;SDS011;578;48.408;10.004;2023-09-18T08:56:01;9.73;;;7.10;;
1178;SDS011;578;48.408;10.004;2023-09-18T08:58:05;11.03;;;7.03;;
1178;SDS011;578;48.408;10.004;2023-09-18T09:00:10;8.17;;;6.30;;
1178;SDS011;578;48.408;10.004;2023-09-18T09:02:16;7.70;;;6.43;;
1178;SDS011;578;48.408;10.004;2023-09-18T09:04:18;8.63;;;5.57;;
1178;SDS011;578;48.408;10.004;2023-09-18T09:06:20;5.73;;;5.10;;
1178;SDS011;578;48.408;10.004;2023-09-18T09:08:22;11.47;;;5.70;;
1178;SDS011;578;48.408;10.004;2023-09-18T09:10:24;9.10;;;4.67;;
1178;SDS011;578;48.408;10.004;2023-09-18T09:15:01;7.53;;;4.90;;
1178;SDS011;578;48.408;10.004;2023-09-18T09:17:06;10.00;;;4.40;;
1178;SDS011;578;48.408;10.004;2023-09-18T09:19:08;8.80;;;4.83;;
1178;SDS011;578;48.408;10.004;2023-09-18T09:21:09;6.13;;;4.77;;
1178;SDS011;578;48.408;10.004;2023-09-18T09:23:11;7.63;;;4.90;;
1178;SDS011;578;48.408;10.004;2023-09-18T09:25:23;9.43;;;4.67;;
1178;SDS011;578;48.408;10.004;2023-09-18T09:27:41;9.30;;;5.30;;
1178;SDS011;578;48.408;10.004;2023-09-18T09:29:42;9.50;;;4.90;;
1178;SDS011;578;48.408;10.004;2023-09-18T09:32:03;9.07;;;4.70;;
1178;SDS011;578;48.408;10.004;2023-09-18T09:34:23;8.90;;;5.13;;
1178;SDS011;578;48.408;10.004;2023-09-18T09:36:27;9.63;;;5.50;;
1178;SDS011;578;48.408;10.004;2023-09-18T09:38:29;7.10;;;4.90;;
1178;SDS011;578;48.408;10.004;2023-09-18T09:40:33;10.67;;;5.37;;
1178;SDS011;578;48.408;10.004;2023-09-18T09:42:38;9.97;;;5.10;;
1178;SDS011;578;48.408;10.004;2023-09-18T09:44:41;7.67;;;5.20;;
1178;SDS011;578;48.408;10.004;2023-09-18T09:46:46;10.60;;;5.00;;
1178;SDS011;578;48.408;10.004;2023-09-18T09:48:59;9.67;;;5.10;;
1178;SDS011;578;48.408;10.004;2023-09-18T09:51:02;13.07;;;5.60;;
1178;SDS011;578;48.408;10.004;2023-09-18T09:53:03;10.00;;;5.23;;
1178;SDS011;578;48.408;10.004;2023-09-18T09:55:08;11.57;;;5.07;;
1178;SDS011;578;48.408;10.004;2023-09-18T09:57:18;10.43;;;4.60;;
1178;SDS011;578;48.408;10.004;2023-09-18T09:59:20;8.33;;;4.30;;
1178;SDS011;578;48.408;10.004;2023-09-18T10:01:26;6.77;;;4.47;;
1178;SDS011;578;48.408;10.004;2023-09-18T10:03:28;8.17;;;4.30;;
1178;SDS011;578;48.408;10.004;2023-09-18T10:05:33;8.43;;;4.70;;
1178;SDS011;578;48.408;10.004;2023-09-18T10:07:36;9.93;;;4.50;;
1178;SDS011;578;48.408;10.004;2023-09-18T10:09:39;5.63;;;4.30;;
1178;SDS011;578;48.408;10.004;2023-09-18T10:11:43;9.80;;;4.50;;
1178;SDS011;578;48.408;10.004;2023-09-18T10:13:51;15.20;;;4.20;;
1178;SDS011;578;48.408;10.004;2023-09-18T10:15:57;11.00;;;4.77;;
1178;SDS011;578;48.408;10.004;2023-09-18T10:18:02;6.07;;;4.60;;
1178;SDS011;578;48.408;10.004;2023-09-18T10:20:08;7.93;;;4.53;;
1178;SDS011;578;48.408;10.004;2023-09-18T10:22:20;9.10;;;4.30;;
1178;SDS011;578;48.408;10.004;2023-09-18T10:24:29;6.60;;;3.90;;
1178;SDS011;578;48.408;10.004;2023-09-18T10:26:38;4.43;;;3.63;;
1178;SDS011;578;48.408;10.004;2023-09-18T10:28:47;10.90;;;3.93;;
1178;SDS011;578;48.408;10.004;2023-09-18T10:30:54;7.63;;;3.80;;
1178;SDS011;578;48.408;10.004;2023-09-18T10:32:57;9.37;;;4.23;;
1178;SDS011;578;48.408;10.004;2023-09-18T10:35:01;8.50;;;3.60;;
1178;SDS011;578;48.408;10.004;2023-09-18T10:37:04;11.77;;;4.13;;
1178;SDS011;578;48.408;10.004;2023-09-18T10:39:10;9.60;;;4.07;;
1178;SDS011;578;48.408;10.004;2023-09-18T10:41:12;6.30;;;3.13;;
1178;SDS011;578;48.408;10.004;2023-09-18T10:43:17;4.97;;;2.70;;
1178;SDS011;578;48.408;10.004;2023-09-18T10:45:19;10.13;;;3.43;;
1178;SDS011;578;48.408;10.004;2023-09-18T10:47:22;5.53;;;3.17;;
1178;SDS011;578;48.408;10.004;2023-09-18T10:49:24;6.00;;;3.43;;
1178;SDS011;578;48.408;10.004;2023-09-18T10:51:26;8.10;;;3.80;;
1178;SDS011;578;48.408;10.004;2023-09-18T10:53:29;11.70;;;3.30;;
1178;SDS011;578;48.408;10.004;2023-09-18T10:55:33;4.00;;;3.00;;
1178;SDS011;578;48.408;10.004;2023-09-18T10:57:36;6.60;;;2.70;;
1178;SDS011;578;48.408;10.004;2023-09-18T10:59:43;5.30;;;3.10;;
1178;SDS011;578;48.408;10.004;2023-09-18T11:01:46;7.33;;;4.47;;
1178;SDS011;578;48.408;10.004;2023-09-18T11:03:49;8.30;;;3.67;;
1178;SDS011;578;48.408;10.004;2023-09-18T11:06:04;8.00;;;3.67;;
1178;SDS011;578;48.408;10.004;2023-09-18T11:10:29;11.00;;;4.33;;
1178;SDS011;578;48.408;10.004;2023-09-18T11:12:43;5.20;;;3.83;;
1178;SDS011;578;48.408;10.004;2023-09-18T11:14:47;6.73;;;3.70;;
1178;SDS011;578;48.408;10.004;2023-09-18T11:16:52;7.80;;;3.97;;
1178;SDS011;578;48.408;10.004;2023-09-18T11:19:04;8.57;;;4.00;;
1178;SDS011;578;48.408;10.004;2023-09-18T11:21:08;6.17;;;4.03;;
1178;SDS011;578;48.408;10.004;2023-09-18T11:23:15;7.20;;;4.57;;
1178;SDS011;578;48.408;10.004;2023-09-18T11:25:34;5.80;;;3.10;;
1178;SDS011;578;48.408;10.004;2023-09-18T11:27:44;7.60;;;4.37;;
1178;SDS011;578;48.408;10.004;2023-09-18T11:29:55;8.53;;;3.70;;
1178;SDS011;578;48.408;10.004;2023-09-18T11:31:59;7.10;;;3.27;;
1178;SDS011;578;48.408;10.004;2023-09-18T11:34:03;7.07;;;3.20;;
1178;SDS011;578;48.408;10.004;2023-09-18T11:36:13;5.80;;;3.83;;
1178;SDS011;578;48.408;10.004;2023-09-18T11:38:30;3.77;;;3.13;;
1178;SDS011;578;48.408;10.004;2023-09-18T11:40:34;9.30;;;3.03;;
1178;SDS011;578;48.408;10.004;2023-09-18T11:42:39;7.20;;;3.33;;
1178;SDS011;578;48.408;10.004;2023-09-18T11:45:21;4.70;;;2.60;;
1178;SDS011;578;48.408;10.004;2023-09-18T11:47:23;6.90;;;3.07;;
1178;SDS011;578;48.408;10.004;2023-09-18T11:49:27;4.00;;;3.60;;
1178;SDS011;578;48.408;10.004;2023-09-18T11:51:32;7.17;;;3.73;;
1178;SDS011;578;48.408;10.004;2023-09-18T11:53:35;4.57;;;3.03;;
1178;SDS011;578;48.408;10.004;2023-09-18T11:55:42;6.67;;;3.43;;
1178;SDS011;578;48.408;10.004;2023-09-18T11:57:44;8.43;;;3.60;;
1178;SDS011;578;48.408;10.004;2023-09-18T11:59:48;6.83;;;3.90;;
1178;SDS011;578;48.408;10.004;2023-09-18T12:01:53;8.27;;;2.90;;
1178;SDS011;578;48.408;10.004;2023-09-18T12:04:01;4.67;;;3.10;;
1178;SDS011;578;48.408;10.004;2023-09-18T12:06:07;3.70;;;2.73;;
1178;SDS011;578;48.408;10.004;2023-09-18T12:08:10;7.73;;;3.57;;
1178;SDS011;578;48.408;10.004;2023-09-18T12:10:13;3.47;;;2.53;;
1178;SDS011;578;48.408;10.004;2023-09-18T12:12:17;8.30;;;3.00;;
1178;SDS011;578;48.408;10.004;2023-09-18T12:14:19;6.60;;;3.57;;
1178;SDS011;578;48.408;10.004;2023-09-18T12:16:21;3.80;;;2.90;;
1178;SDS011;578;48.408;10.004;2023-09-18T12:18:24;5.90;;;3.00;;
1178;SDS011;578;48.408;10.004;2023-09-18T12:20:28;4.40;;;3.10;;
1178;SDS011;578;48.408;10.004;2023-09-18T12:22:32;4.50;;;2.57;;
1178;SDS011;578;48.408;10.004;2023-09-18T12:24:36;6.20;;;2.37;;
1178;SDS011;578;48.408;10.004;2023-09-18T12:26:39;8.20;;;3.07;;
1178;SDS011;578;48.408;10.004;2023-09-18T12:28:42;7.07;;;2.90;;
1178;SDS011;578;48.408;10.004;2023-09-18T12:30:44;7.43;;;2.90;;
1178;SDS011;578;48.408;10.004;2023-09-18T12:32:46;4.60;;;2.93;;
1178;SDS011;578;48.408;10.004;2023-09-18T12:34:49;6.73;;;3.47;;
1178;SDS011;578;48.408;10.004;2023-09-18T12:36:51;8.53;;;2.97;;
1178;SDS011;578;48.408;10.004;2023-09-18T12:38:56;5.13;;;3.50;;